Erie, North Dakota
Current Conditions -  °F | °C
As of 3:53 AM on Friday 21 Nov 2014 (Local Time) from KFAR Reporting Station
Clear Clear  
Wind Chill: -5°   Ceiling: Unl
Heat Index: 12°   Visibility: 10mi
Dew Point:   Wind: 17mph
Humidity: 73%   Direction: 160°SSE
Pressure: 29.99"   Gusts: 23mph
Location:  47.12°N, 97.39°W
Report Text: KFAR 210953Z 16015G20KT 10SM CLR M11/M15 A2999 RMK AO2 SLP172 T11111150
Loading
Personal Weather Stations






























Interactive Weather Map New forecast layout! Learn more

10-Day Weather Forecast

Advertisements
Track Severe Weather on mobile